sensor_id;sensor_type;location;lat;lon;timestamp;pressure;altitude;pressure_sealevel;temperature;humidity
21980;BME280;11154;48.558;9.234;2023-12-20T00:01:25;97561.66;;;12.30;67.49
21980;BME280;11154;48.558;9.234;2023-12-20T00:03:27;97561.97;;;12.27;67.87
21980;BME280;11154;48.558;9.234;2023-12-20T00:05:29;97551.16;;;12.29;67.97
21980;BME280;11154;48.558;9.234;2023-12-20T00:07:33;97537.84;;;12.29;68.03
21980;BME280;11154;48.558;9.234;2023-12-20T00:09:35;97538.66;;;12.29;68.07
21980;BME280;11154;48.558;9.234;2023-12-20T00:11:36;97534.63;;;12.33;68.44
21980;BME280;11154;48.558;9.234;2023-12-20T00:13:38;97525.13;;;12.39;68.17
21980;BME280;11154;48.558;9.234;2023-12-20T00:15:40;97528.28;;;12.42;67.88
21980;BME280;11154;48.558;9.234;2023-12-20T00:17:41;97530.13;;;12.42;68.12
21980;BME280;11154;48.558;9.234;2023-12-20T00:19:43;97526.78;;;12.48;68.14
21980;BME280;11154;48.558;9.234;2023-12-20T00:21:44;97522.56;;;12.53;67.68
21980;BME280;11154;48.558;9.234;2023-12-20T00:23:47;97523.03;;;12.57;67.59
21980;BME280;11154;48.558;9.234;2023-12-20T00:25:49;97520.03;;;12.60;67.72
21980;BME280;11154;48.558;9.234;2023-12-20T00:27:51;97513.84;;;12.59;67.55
21980;BME280;11154;48.558;9.234;2023-12-20T00:29:53;97506.53;;;12.61;67.96
21980;BME280;11154;48.558;9.234;2023-12-20T00:31:54;97503.53;;;12.64;67.70
21980;BME280;11154;48.558;9.234;2023-12-20T00:33:56;97493.47;;;12.66;68.08
21980;BME280;11154;48.558;9.234;2023-12-20T00:35:57;97493.16;;;12.69;67.88
21980;BME280;11154;48.558;9.234;2023-12-20T00:37:58;97493.81;;;12.71;68.22
21980;BME280;11154;48.558;9.234;2023-12-20T00:40:01;97484.97;;;12.71;68.49
21980;BME280;11154;48.558;9.234;2023-12-20T00:42:03;97489.47;;;12.70;68.54
21980;BME280;11154;48.558;9.234;2023-12-20T00:44:05;97484.16;;;12.70;69.30
21980;BME280;11154;48.558;9.234;2023-12-20T00:46:06;97487.63;;;12.71;69.18
21980;BME280;11154;48.558;9.234;2023-12-20T00:48:07;97484.16;;;12.70;69.34
21980;BME280;11154;48.558;9.234;2023-12-20T00:50:09;97482.13;;;12.72;69.10
21980;BME280;11154;48.558;9.234;2023-12-20T00:52:10;97474.81;;;12.66;69.56
21980;BME280;11154;48.558;9.234;2023-12-20T00:54:12;97478.34;;;12.67;70.03
21980;BME280;11154;48.558;9.234;2023-12-20T00:56:15;97470.16;;;12.68;69.97
21980;BME280;11154;48.558;9.234;2023-12-20T00:58:17;97468.97;;;12.71;70.07
21980;BME280;11154;48.558;9.234;2023-12-20T01:00:18;97477.81;;;12.71;69.80
21980;BME280;11154;48.558;9.234;2023-12-20T01:02:20;97477.63;;;12.73;69.84
21980;BME280;11154;48.558;9.234;2023-12-20T01:04:22;97481.78;;;12.75;70.16
21980;BME280;11154;48.558;9.234;2023-12-20T01:06:24;97484.25;;;12.77;70.36
21980;BME280;11154;48.558;9.234;2023-12-20T01:08:25;97494.94;;;12.77;70.45
21980;BME280;11154;48.558;9.234;2023-12-20T01:10:27;97485.75;;;12.79;70.27
21980;BME280;11154;48.558;9.234;2023-12-20T01:12:31;97491.06;;;12.79;70.32
21980;BME280;11154;48.558;9.234;2023-12-20T01:14:32;97499.75;;;12.81;70.44
21980;BME280;11154;48.558;9.234;2023-12-20T01:16:34;97494.41;;;12.81;70.36
21980;BME280;11154;48.558;9.234;2023-12-20T01:18:35;97501.75;;;12.79;70.24
21980;BME280;11154;48.558;9.234;2023-12-20T01:20:36;97502.13;;;12.76;70.69
21980;BME280;11154;48.558;9.234;2023-12-20T01:22:38;97503.13;;;12.75;70.71
21980;BME280;11154;48.558;9.234;2023-12-20T01:24:39;97506.31;;;12.71;71.16
21980;BME280;11154;48.558;9.234;2023-12-20T01:26:41;97512.53;;;12.63;71.35
21980;BME280;11154;48.558;9.234;2023-12-20T01:28:44;97515.22;;;12.55;72.22
21980;BME280;11154;48.558;9.234;2023-12-20T01:30:45;97517.41;;;12.52;72.83
21980;BME280;11154;48.558;9.234;2023-12-20T01:32:47;97514.25;;;12.48;73.57
21980;BME280;11154;48.558;9.234;2023-12-20T01:34:49;97524.63;;;12.43;74.57
21980;BME280;11154;48.558;9.234;2023-12-20T01:36:50;97516.13;;;12.40;75.38
21980;BME280;11154;48.558;9.234;2023-12-20T01:38:52;97535.13;;;12.37;76.03
21980;BME280;11154;48.558;9.234;2023-12-20T01:40:53;97528.81;;;12.30;76.97
21980;BME280;11154;48.558;9.234;2023-12-20T01:42:58;97529.28;;;12.33;77.20
21980;BME280;11154;48.558;9.234;2023-12-20T01:45:01;97518.63;;;12.33;77.41
21980;BME280;11154;48.558;9.234;2023-12-20T01:47:03;97524.63;;;12.35;77.89
21980;BME280;11154;48.558;9.234;2023-12-20T01:49:04;97529.63;;;12.38;78.72
21980;BME280;11154;48.558;9.234;2023-12-20T01:51:06;97525.31;;;12.37;78.75
21980;BME280;11154;48.558;9.234;2023-12-20T01:53:08;97537.78;;;12.37;79.15
21980;BME280;11154;48.558;9.234;2023-12-20T01:55:10;97529.97;;;12.35;80.21
21980;BME280;11154;48.558;9.234;2023-12-20T01:57:15;97522.34;;;12.32;80.17
21980;BME280;11154;48.558;9.234;2023-12-20T01:59:17;97526.00;;;12.31;80.89
21980;BME280;11154;48.558;9.234;2023-12-20T02:01:22;97527.50;;;12.26;81.27
21980;BME280;11154;48.558;9.234;2023-12-20T02:03:23;97501.75;;;10.68;88.35
21980;BME280;11154;48.558;9.234;2023-12-20T02:05:25;97493.06;;;9.83;95.59
21980;BME280;11154;48.558;9.234;2023-12-20T02:07:28;97492.78;;;9.43;99.58
21980;BME280;11154;48.558;9.234;2023-12-20T02:09:30;97488.13;;;9.20;100.00
21980;BME280;11154;48.558;9.234;2023-12-20T02:11:33;97490.78;;;9.03;100.00
21980;BME280;11154;48.558;9.234;2023-12-20T02:13:35;97484.75;;;8.93;100.00
21980;BME280;11154;48.558;9.234;2023-12-20T02:15:37;97482.16;;;8.83;100.00
21980;BME280;11154;48.558;9.234;2023-12-20T02:17:40;97470.34;;;8.78;100.00
21980;BME280;11154;48.558;9.234;2023-12-20T02:19:41;97475.06;;;8.66;100.00
21980;BME280;11154;48.558;9.234;2023-12-20T02:21:44;97472.31;;;8.59;100.00
21980;BME280;11154;48.558;9.234;2023-12-20T02:23:45;97476.63;;;8.60;100.00
21980;BME280;11154;48.558;9.234;2023-12-20T02:25:47;97474.81;;;8.60;100.00
21980;BME280;11154;48.558;9.234;2023-12-20T02:27:49;97475.44;;;8.71;100.00
21980;BME280;11154;48.558;9.234;2023-12-20T02:29:51;97473.22;;;8.67;100.00
21980;BME280;11154;48.558;9.234;2023-12-20T02:31:51;97472.75;;;8.54;100.00
21980;BME280;11154;48.558;9.234;2023-12-20T02:33:53;97476.94;;;8.57;100.00
21980;BME280;11154;48.558;9.234;2023-12-20T02:35:55;97473.31;;;8.58;100.00
21980;BME280;11154;48.558;9.234;2023-12-20T02:37:57;97481.69;;;8.53;100.00
21980;BME280;11154;48.558;9.234;2023-12-20T02:39:58;97483.22;;;8.56;100.00
21980;BME280;11154;48.558;9.234;2023-12-20T02:42:00;97485.63;;;8.49;100.00
21980;BME280;11154;48.558;9.234;2023-12-20T02:44:01;97475.13;;;8.57;100.00
21980;BME280;11154;48.558;9.234;2023-12-20T02:46:03;97476.09;;;8.56;100.00
21980;BME280;11154;48.558;9.234;2023-12-20T02:48:05;97475.56;;;8.53;100.00
21980;BME280;11154;48.558;9.234;2023-12-20T02:50:07;97474.72;;;8.52;100.00
21980;BME280;11154;48.558;9.234;2023-12-20T02:52:09;97472.94;;;8.53;100.00
21980;BME280;11154;48.558;9.234;2023-12-20T02:54:12;97472.22;;;8.51;100.00
21980;BME280;11154;48.558;9.234;2023-12-20T02:56:12;97484.50;;;8.52;100.00
21980;BME280;11154;48.558;9.234;2023-12-20T02:58:14;97480.03;;;8.52;100.00
21980;BME280;11154;48.558;9.234;2023-12-20T03:00:18;97479.19;;;8.52;100.00
21980;BME280;11154;48.558;9.234;2023-12-20T03:02:19;97487.97;;;8.52;100.00
21980;BME280;11154;48.558;9.234;2023-12-20T03:04:21;97488.97;;;8.51;100.00
21980;BME280;11154;48.558;9.234;2023-12-20T03:06:23;97485.63;;;8.49;100.00
21980;BME280;11154;48.558;9.234;2023-12-20T03:08:24;97482.81;;;8.51;100.00
21980;BME280;11154;48.558;9.234;2023-12-20T03:10:27;97482.81;;;8.51;100.00
21980;BME280;11154;48.558;9.234;2023-12-20T03:12:29;97492.59;;;8.50;100.00
21980;BME280;11154;48.558;9.234;2023-12-20T03:14:30;97487.31;;;8.50;100.00
21980;BME280;11154;48.558;9.234;2023-12-20T03:16:32;97487.00;;;8.53;100.00
21980;BME280;11154;48.558;9.234;2023-12-20T03:18:34;97489.50;;;8.55;100.00
21980;BME280;11154;48.558;9.234;2023-12-20T03:20:35;97484.22;;;8.55;100.00
21980;BME280;11154;48.558;9.234;2023-12-20T03:22:37;97497.31;;;8.56;100.00
21980;BME280;11154;48.558;9.234;2023-12-20T03:24:39;97499.09;;;8.56;100.00
21980;BME280;11154;48.558;9.234;2023-12-20T03:26:42;97492.81;;;8.57;100.00
21980;BME280;11154;48.558;9.234;2023-12-20T03:28:43;97499.97;;;8.56;100.00
21980;BME280;11154;48.558;9.234;2023-12-20T03:30:45;97505.09;;;8.58;100.00
21980;BME280;11154;48.558;9.234;2023-12-20T03:32:47;97505.25;;;8.56;100.00
21980;BME280;11154;48.558;9.234;2023-12-20T03:34:47;97507.06;;;8.56;100.00
21980;BME280;11154;48.558;9.234;2023-12-20T03:36:49;97509.69;;;8.56;100.00
21980;BME280;11154;48.558;9.234;2023-12-20T03:38:51;97513.22;;;8.56;100.00
21980;BME280;11154;48.558;9.234;2023-12-20T03:40:52;97501.75;;;8.56;100.00
21980;BME280;11154;48.558;9.234;2023-12-20T03:42:55;97511.69;;;8.54;100.00
21980;BME280;11154;48.558;9.234;2023-12-20T03:44:57;97510.72;;;8.55;100.00
21980;BME280;11154;48.558;9.234;2023-12-20T03:46:58;97508.19;;;8.53;100.00
21980;BME280;11154;48.558;9.234;2023-12-20T03:48:59;97509.03;;;8.54;100.00
21980;BME280;11154;48.558;9.234;2023-12-20T03:51:01;97517.66;;;8.56;100.00
21980;BME280;11154;48.558;9.234;2023-12-20T03:53:02;97525.59;;;8.56;100.00
21980;BME280;11154;48.558;9.234;2023-12-20T03:55:05;97515.84;;;8.56;100.00
21980;BME280;11154;48.558;9.234;2023-12-20T03:57:07;97520.19;;;8.57;100.00
21980;BME280;11154;48.558;9.234;2023-12-20T03:59:10;97520.31;;;8.56;100.00
21980;BME280;11154;48.558;9.234;2023-12-20T04:01:11;97527.44;;;8.55;100.00
21980;BME280;11154;48.558;9.234;2023-12-20T04:03:13;97547.50;;;9.62;100.00
21980;BME280;11154;48.558;9.234;2023-12-20T04:05:15;97543.38;;;10.10;100.00
21980;BME280;11154;48.558;9.234;2023-12-20T04:07:15;97546.81;;;10.36;100.00
21980;BME280;11154;48.558;9.234;2023-12-20T04:09:17;97560.84;;;10.62;100.00
21980;BME280;11154;48.558;9.234;2023-12-20T04:11:18;97560.28;;;10.83;100.00
21980;BME280;11154;48.558;9.234;2023-12-20T04:13:20;97565.50;;;11.01;100.00
21980;BME280;11154;48.558;9.234;2023-12-20T04:15:22;97559.03;;;11.19;99.99
21980;BME280;11154;48.558;9.234;2023-12-20T04:17:24;97563.53;;;11.35;98.07
21980;BME280;11154;48.558;9.234;2023-12-20T04:19:25;97556.41;;;11.51;96.96
21980;BME280;11154;48.558;9.234;2023-12-20T04:21:27;97562.44;;;11.61;95.41
21980;BME280;11154;48.558;9.234;2023-12-20T04:23:28;97552.28;;;11.64;94.42
21980;BME280;11154;48.558;9.234;2023-12-20T04:25:30;97551.09;;;11.67;93.70
21980;BME280;11154;48.558;9.234;2023-12-20T04:27:32;97557.09;;;11.69;93.15
21980;BME280;11154;48.558;9.234;2023-12-20T04:29:33;97558.09;;;11.68;92.79
21980;BME280;11154;48.558;9.234;2023-12-20T04:31:36;97570.41;;;11.69;92.29
21980;BME280;11154;48.558;9.234;2023-12-20T04:33:38;97570.06;;;11.72;91.79
21980;BME280;11154;48.558;9.234;2023-12-20T04:35:40;97569.75;;;11.75;91.77
21980;BME280;11154;48.558;9.234;2023-12-20T04:37:43;97558.75;;;11.78;91.29
21980;BME280;11154;48.558;9.234;2023-12-20T04:39:44;97555.75;;;11.81;90.92
21980;BME280;11154;48.558;9.234;2023-12-20T04:41:46;97553.91;;;11.81;90.93
21980;BME280;11154;48.558;9.234;2023-12-20T04:43:48;97560.25;;;11.80;90.62
21980;BME280;11154;48.558;9.234;2023-12-20T04:45:49;97554.09;;;11.80;90.56
21980;BME280;11154;48.558;9.234;2023-12-20T04:47:52;97550.13;;;11.76;90.63
21980;BME280;11154;48.558;9.234;2023-12-20T04:49:54;97555.44;;;11.68;90.74
21980;BME280;11154;48.558;9.234;2023-12-20T04:51:55;97572.41;;;11.67;90.55
21980;BME280;11154;48.558;9.234;2023-12-20T04:53:57;97573.59;;;11.72;90.45
21980;BME280;11154;48.558;9.234;2023-12-20T04:55:58;97577.06;;;11.73;90.36
21980;BME280;11154;48.558;9.234;2023-12-20T04:58:00;97576.75;;;11.76;90.12
21980;BME280;11154;48.558;9.234;2023-12-20T05:00:02;97580.56;;;11.81;89.94
21980;BME280;11154;48.558;9.234;2023-12-20T05:02:04;97577.41;;;11.86;89.50
21980;BME280;11154;48.558;9.234;2023-12-20T05:04:07;97591.38;;;11.88;89.19
21980;BME280;11154;48.558;9.234;2023-12-20T05:06:09;97593.22;;;11.87;87.79
21980;BME280;11154;48.558;9.234;2023-12-20T05:08:10;97593.88;;;11.89;87.46
21980;BME280;11154;48.558;9.234;2023-12-20T05:10:11;97580.38;;;11.91;86.62
21980;BME280;11154;48.558;9.234;2023-12-20T05:12:13;97590.72;;;11.94;87.14
21980;BME280;11154;48.558;9.234;2023-12-20T05:14:15;97589.88;;;12.01;88.17
21980;BME280;11154;48.558;9.234;2023-12-20T05:16:17;97600.69;;;12.08;88.95
21980;BME280;11154;48.558;9.234;2023-12-20T05:18:20;97595.50;;;12.06;88.12
21980;BME280;11154;48.558;9.234;2023-12-20T05:20:22;97610.69;;;12.06;87.74
21980;BME280;11154;48.558;9.234;2023-12-20T05:22:24;97603.69;;;12.05;87.49
21980;BME280;11154;48.558;9.234;2023-12-20T05:24:25;97601.03;;;12.05;86.90
21980;BME280;11154;48.558;9.234;2023-12-20T05:26:26;97608.03;;;12.06;86.56
21980;BME280;11154;48.558;9.234;2023-12-20T05:28:29;97611.50;;;12.06;86.58
21980;BME280;11154;48.558;9.234;2023-12-20T05:30:31;97609.34;;;12.02;85.04
21980;BME280;11154;48.558;9.234;2023-12-20T05:32:33;97617.34;;;12.02;85.11
21980;BME280;11154;48.558;9.234;2023-12-20T05:34:34;97619.53;;;11.90;83.61
21980;BME280;11154;48.558;9.234;2023-12-20T05:36:36;97630.34;;;11.89;85.42
21980;BME280;11154;48.558;9.234;2023-12-20T05:38:39;97635.34;;;11.84;84.97
21980;BME280;11154;48.558;9.234;2023-12-20T05:40:41;97636.31;;;11.83;83.72
21980;BME280;11154;48.558;9.234;2023-12-20T05:42:42;97645.34;;;11.82;83.01
21980;BME280;11154;48.558;9.234;2023-12-20T05:44:44;97641.16;;;11.87;84.01
21980;BME280;11154;48.558;9.234;2023-12-20T05:46:44;97641.66;;;11.91;84.94
21980;BME280;11154;48.558;9.234;2023-12-20T05:48:46;97640.00;;;11.98;84.49
21980;BME280;11154;48.558;9.234;2023-12-20T05:50:48;97635.03;;;11.95;83.96
21980;BME280;11154;48.558;9.234;2023-12-20T05:52:51;97640.81;;;11.98;84.85
21980;BME280;11154;48.558;9.234;2023-12-20T05:54:54;97633.69;;;12.07;84.36
21980;BME280;11154;48.558;9.234;2023-12-20T05:56:56;97636.66;;;12.12;84.27
21980;BME280;11154;48.558;9.234;2023-12-20T05:58:57;97640.34;;;12.11;83.17
21980;BME280;11154;48.558;9.234;2023-12-20T06:00:59;97645.66;;;12.11;83.16
21980;BME280;11154;48.558;9.234;2023-12-20T06:03:01;97648.81;;;12.14;83.45
21980;BME280;11154;48.558;9.234;2023-12-20T06:05:05;97662.66;;;12.18;85.26
21980;BME280;11154;48.558;9.234;2023-12-20T06:07:06;97656.66;;;12.23;88.74
21980;BME280;11154;48.558;9.234;2023-12-20T06:09:09;97653.16;;;12.23;87.69
21980;BME280;11154;48.558;9.234;2023-12-20T06:11:11;97670.28;;;12.21;86.03
21980;BME280;11154;48.558;9.234;2023-12-20T06:13:13;97668.31;;;12.15;85.08
21980;BME280;11154;48.558;9.234;2023-12-20T06:15:14;97675.66;;;12.13;84.14
21980;BME280;11154;48.558;9.234;2023-12-20T06:17:16;97664.50;;;12.09;83.21
21980;BME280;11154;48.558;9.234;2023-12-20T06:19:18;97678.00;;;12.08;83.64
21980;BME280;11154;48.558;9.234;2023-12-20T06:21:18;97676.16;;;12.08;84.07
21980;BME280;11154;48.558;9.234;2023-12-20T06:23:20;97676.97;;;12.09;84.50
21980;BME280;11154;48.558;9.234;2023-12-20T06:25:23;97673.31;;;12.10;84.00
21980;BME280;11154;48.558;9.234;2023-12-20T06:27:25;97682.66;;;12.06;83.39
21980;BME280;11154;48.558;9.234;2023-12-20T06:29:27;97676.31;;;12.07;84.55
21980;BME280;11154;48.558;9.234;2023-12-20T06:31:29;97678.00;;;12.08;84.72
21980;BME280;11154;48.558;9.234;2023-12-20T06:33:33;97684.16;;;12.08;84.83
21980;BME280;11154;48.558;9.234;2023-12-20T06:35:34;97689.00;;;12.13;84.96
21980;BME280;11154;48.558;9.234;2023-12-20T06:37:35;97694.97;;;12.15;84.87
21980;BME280;11154;48.558;9.234;2023-12-20T06:39:36;97685.66;;;12.19;84.75
21980;BME280;11154;48.558;9.234;2023-12-20T06:41:39;97677.47;;;12.20;84.59
21980;BME280;11154;48.558;9.234;2023-12-20T06:43:43;97680.13;;;12.20;84.73
21980;BME280;11154;48.558;9.234;2023-12-20T06:45:44;97680.63;;;12.16;84.93
21980;BME280;11154;48.558;9.234;2023-12-20T06:47:45;97686.97;;;12.15;84.85
21980;BME280;11154;48.558;9.234;2023-12-20T06:49:46;97686.31;;;12.13;84.84
21980;BME280;11154;48.558;9.234;2023-12-20T06:51:48;97680.63;;;12.16;84.92
21980;BME280;11154;48.558;9.234;2023-12-20T06:53:50;97680.31;;;12.19;84.68
21980;BME280;11154;48.558;9.234;2023-12-20T06:55:51;97694.28;;;12.21;84.69
21980;BME280;11154;48.558;9.234;2023-12-20T06:57:54;97700.97;;;12.24;84.79
21980;BME280;11154;48.558;9.234;2023-12-20T06:59:55;97702.47;;;12.27;84.72
21980;BME280;11154;48.558;9.234;2023-12-20T07:01:58;97693.47;;;12.28;84.70
21980;BME280;11154;48.558;9.234;2023-12-20T07:03:58;97698.31;;;12.24;84.35
21980;BME280;11154;48.558;9.234;2023-12-20T07:06:00;97696.63;;;12.23;84.42
21980;BME280;11154;48.558;9.234;2023-12-20T07:08:03;97702.97;;;12.23;84.55
21980;BME280;11154;48.558;9.234;2023-12-20T07:10:05;97699.31;;;12.23;84.73
21980;BME280;11154;48.558;9.234;2023-12-20T07:12:08;97696.63;;;12.23;84.65
21980;BME280;11154;48.558;9.234;2023-12-20T07:14:10;97712.63;;;12.23;84.57
21980;BME280;11154;48.558;9.234;2023-12-20T07:16:11;97706.97;;;12.26;84.25
21980;BME280;11154;48.558;9.234;2023-12-20T07:18:13;97723.63;;;12.28;84.36
21980;BME280;11154;48.558;9.234;2023-12-20T07:20:15;97718.28;;;12.28;84.20
21980;BME280;11154;48.558;9.234;2023-12-20T07:22:16;97725.13;;;12.31;84.08
21980;BME280;11154;48.558;9.234;2023-12-20T07:24:18;97717.78;;;12.33;83.95
21980;BME280;11154;48.558;9.234;2023-12-20T07:26:19;97726.63;;;12.33;84.00
21980;BME280;11154;48.558;9.234;2023-12-20T07:28:21;97732.59;;;12.59;84.04
21980;BME280;11154;48.558;9.234;2023-12-20T07:30:24;97726.50;;;13.13;82.60
21980;BME280;11154;48.558;9.234;2023-12-20T07:32:26;97724.31;;;13.24;79.42
21980;BME280;11154;48.558;9.234;2023-12-20T07:34:27;97731.84;;;13.13;79.30
21980;BME280;11154;48.558;9.234;2023-12-20T07:36:28;97737.72;;;13.00;79.39
21980;BME280;11154;48.558;9.234;2023-12-20T07:38:29;97744.28;;;12.90;80.28
21980;BME280;11154;48.558;9.234;2023-12-20T07:40:31;97753.25;;;12.81;80.69
21980;BME280;11154;48.558;9.234;2023-12-20T07:42:32;97756.94;;;12.72;81.28
21980;BME280;11154;48.558;9.234;2023-12-20T07:44:34;97762.28;;;12.64;81.80
21980;BME280;11154;48.558;9.234;2023-12-20T07:46:38;97749.47;;;12.60;82.33
21980;BME280;11154;48.558;9.234;2023-12-20T07:48:40;97748.09;;;12.56;82.22
21980;BME280;11154;48.558;9.234;2023-12-20T07:50:41;97757.97;;;12.55;82.46
21980;BME280;11154;48.558;9.234;2023-12-20T07:52:43;97759.31;;;12.51;82.84
21980;BME280;11154;48.558;9.234;2023-12-20T07:54:45;97755.78;;;12.51;82.75
21980;BME280;11154;48.558;9.234;2023-12-20T07:56:46;97756.97;;;12.48;83.00
21980;BME280;11154;48.558;9.234;2023-12-20T07:58:48;97752.97;;;12.44;83.39
21980;BME280;11154;48.558;9.234;2023-12-20T08:00:49;97755.97;;;12.41;83.74
21980;BME280;11154;48.558;9.234;2023-12-20T08:02:51;97765.13;;;12.39;83.88
21980;BME280;11154;48.558;9.234;2023-12-20T08:04:53;97767.63;;;12.40;83.89
21980;BME280;11154;48.558;9.234;2023-12-20T08:06:54;97773.97;;;12.39;83.90
21980;BME280;11154;48.558;9.234;2023-12-20T08:08:55;97765.97;;;12.39;83.74
21980;BME280;11154;48.558;9.234;2023-12-20T08:10:57;97770.97;;;12.42;83.65
21980;BME280;11154;48.558;9.234;2023-12-20T08:13:00;97766.63;;;12.41;83.83
21980;BME280;11154;48.558;9.234;2023-12-20T08:15:02;97766.31;;;12.44;83.99
21980;BME280;11154;48.558;9.234;2023-12-20T08:17:04;97781.81;;;12.41;83.89
21980;BME280;11154;48.558;9.234;2023-12-20T08:19:07;97770.63;;;12.37;84.19
21980;BME280;11154;48.558;9.234;2023-12-20T08:21:09;97773.97;;;12.39;84.37
21980;BME280;11154;48.558;9.234;2023-12-20T08:23:12;97767.78;;;12.39;84.98
21980;BME280;11154;48.558;9.234;2023-12-20T08:25:14;97767.78;;;12.39;84.79
21980;BME280;11154;48.558;9.234;2023-12-20T08:27:15;97768.66;;;12.39;85.17
21980;BME280;11154;48.558;9.234;2023-12-20T08:29:17;97767.28;;;12.35;85.44
21980;BME280;11154;48.558;9.234;2023-12-20T08:31:19;97767.28;;;12.35;85.59
21980;BME280;11154;48.558;9.234;2023-12-20T08:33:21;97777.97;;;12.35;85.71
21980;BME280;11154;48.558;9.234;2023-12-20T08:35:24;97786.94;;;12.34;85.78
21980;BME280;11154;48.558;9.234;2023-12-20T08:37:24;97788.63;;;12.35;86.16
21980;BME280;11154;48.558;9.234;2023-12-20T08:39:26;97783.28;;;12.35;85.97
21980;BME280;11154;48.558;9.234;2023-12-20T08:41:27;97776.97;;;12.36;85.99
21980;BME280;11154;48.558;9.234;2023-12-20T08:43:29;97769.63;;;12.38;85.95
21980;BME280;11154;48.558;9.234;2023-12-20T08:45:30;97782.97;;;12.38;85.87
21980;BME280;11154;48.558;9.234;2023-12-20T08:47:31;97780.28;;;12.46;85.82
21980;BME280;11154;48.558;9.234;2023-12-20T08:49:33;97779.28;;;12.47;85.32
21980;BME280;11154;48.558;9.234;2023-12-20T08:51:35;97792.31;;;12.50;85.50
21980;BME280;11154;48.558;9.234;2023-12-20T08:53:36;97787.78;;;12.51;85.76
21980;BME280;11154;48.558;9.234;2023-12-20T08:55:37;97787.63;;;12.52;85.57
21980;BME280;11154;48.558;9.234;2023-12-20T08:57:38;97793.81;;;12.53;85.71
21980;BME280;11154;48.558;9.234;2023-12-20T08:59:40;97797.16;;;12.55;85.57
21980;BME280;11154;48.558;9.234;2023-12-20T09:01:41;97808.31;;;12.58;85.56
21980;BME280;11154;48.558;9.234;2023-12-20T09:03:42;97803.00;;;12.58;85.57
21980;BME280;11154;48.558;9.234;2023-12-20T09:05:44;97808.97;;;12.60;85.67
21980;BME280;11154;48.558;9.234;2023-12-20T09:07:46;97811.63;;;12.60;85.72
21980;BME280;11154;48.558;9.234;2023-12-20T09:09:47;97813.31;;;12.61;85.66
21980;BME280;11154;48.558;9.234;2023-12-20T09:11:49;97802.13;;;12.58;85.67
21980;BME280;11154;48.558;9.234;2023-12-20T09:13:51;97802.31;;;12.56;85.57
21980;BME280;11154;48.558;9.234;2023-12-20T09:15:53;97816.13;;;12.52;85.74
21980;BME280;11154;48.558;9.234;2023-12-20T09:17:55;97824.13;;;12.44;86.21
21980;BME280;11154;48.558;9.234;2023-12-20T09:19:56;97811.44;;;12.30;86.20
21980;BME280;11154;48.558;9.234;2023-12-20T09:21:59;97808.28;;;12.19;85.53
21980;BME280;11154;48.558;9.234;2023-12-20T09:24:03;97811.75;;;12.03;85.15
21980;BME280;11154;48.558;9.234;2023-12-20T09:26:04;97812.41;;;11.97;85.59
21980;BME280;11154;48.558;9.234;2023-12-20T09:28:06;97811.38;;;11.90;84.61
21980;BME280;11154;48.558;9.234;2023-12-20T09:30:08;97812.03;;;11.92;84.66
21980;BME280;11154;48.558;9.234;2023-12-20T09:32:10;97812.03;;;11.92;84.00
21980;BME280;11154;48.558;9.234;2023-12-20T09:34:12;97817.38;;;11.92;82.69
21980;BME280;11154;48.558;9.234;2023-12-20T09:36:13;97818.00;;;11.86;80.57
21980;BME280;11154;48.558;9.234;2023-12-20T09:38:15;97817.00;;;11.79;78.28
21980;BME280;11154;48.558;9.234;2023-12-20T09:40:19;97809.50;;;11.75;77.95
21980;BME280;11154;48.558;9.234;2023-12-20T09:42:24;97814.31;;;11.71;77.00
21980;BME280;11154;48.558;9.234;2023-12-20T09:44:29;97805.34;;;11.72;77.09
21980;BME280;11154;48.558;9.234;2023-12-20T09:46:32;97801.50;;;11.75;77.10
21980;BME280;11154;48.558;9.234;2023-12-20T09:48:36;97810.66;;;11.72;76.76
21980;BME280;11154;48.558;9.234;2023-12-20T09:50:39;97804.50;;;11.72;76.17
21980;BME280;11154;48.558;9.234;2023-12-20T09:52:41;97814.97;;;11.65;74.67
21980;BME280;11154;48.558;9.234;2023-12-20T09:54:45;97817.13;;;11.62;73.96
21980;BME280;11154;48.558;9.234;2023-12-20T09:56:50;97820.25;;;11.57;72.90
21980;BME280;11154;48.558;9.234;2023-12-20T09:58:51;97817.25;;;11.60;73.88
21980;BME280;11154;48.558;9.234;2023-12-20T10:00:55;97824.13;;;11.63;74.41
21980;BME280;11154;48.558;9.234;2023-12-20T10:02:58;97827.91;;;11.60;73.41
21980;BME280;11154;48.558;9.234;2023-12-20T10:05:00;97826.25;;;11.59;72.92
21980;BME280;11154;48.558;9.234;2023-12-20T10:07:04;97821.28;;;11.64;71.33
21980;BME280;11154;48.558;9.234;2023-12-20T10:09:05;97823.47;;;11.69;71.97
21980;BME280;11154;48.558;9.234;2023-12-20T10:11:07;97821.16;;;11.74;72.66
21980;BME280;11154;48.558;9.234;2023-12-20T10:13:11;97818.16;;;11.77;72.30
21980;BME280;11154;48.558;9.234;2023-12-20T10:15:13;97817.34;;;11.76;71.19
21980;BME280;11154;48.558;9.234;2023-12-20T10:17:15;97817.16;;;11.78;70.73
21980;BME280;11154;48.558;9.234;2023-12-20T10:19:16;97806.50;;;11.78;69.15
21980;BME280;11154;48.558;9.234;2023-12-20T10:21:18;97810.03;;;11.78;69.40
21980;BME280;11154;48.558;9.234;2023-12-20T10:23:20;97808.84;;;11.81;71.03
21980;BME280;11154;48.558;9.234;2023-12-20T10:25:21;97816.69;;;11.82;69.70
21980;BME280;11154;48.558;9.234;2023-12-20T10:27:23;97810.69;;;11.88;70.07
21980;BME280;11154;48.558;9.234;2023-12-20T10:29:26;97814.56;;;11.94;70.70
21980;BME280;11154;48.558;9.234;2023-12-20T10:31:29;97805.56;;;11.95;68.27
21980;BME280;11154;48.558;9.234;2023-12-20T10:33:31;97796.41;;;11.97;68.72
21980;BME280;11154;48.558;9.234;2023-12-20T10:35:33;97797.22;;;11.98;68.50
21980;BME280;11154;48.558;9.234;2023-12-20T10:37:35;97787.56;;;11.97;68.25
21980;BME280;11154;48.558;9.234;2023-12-20T10:39:38;97790.22;;;11.97;67.65
21980;BME280;11154;48.558;9.234;2023-12-20T10:41:42;97787.91;;;12.02;67.68
21980;BME280;11154;48.558;9.234;2023-12-20T10:43:45;97784.09;;;12.04;68.21
21980;BME280;11154;48.558;9.234;2023-12-20T10:45:48;97780.28;;;12.07;68.77